Tropical Cyclones
[Index]
Main Index Home Page Stock Weather Photos Extreme Storms Discussion Storm News and Storm Chasing Reports Tropical Cyclones / Hurricanes / Typhoons Weather Data and Links Wild Fires / Bushfires Weather Observation Techniques Weather Picture Catalogue Tornado Pictures and Reports Stock Video Footage and DVDs for sale
Season 1971-1972 Tropical Cyclone TESSIE Track Map
Season 1971-1972 Summaries: [BoM-AU] [JTWC-AU] [JTWC-SIO] [JTWC-SPAC] [JTWC-SH]
<<- Previous TC | BoM 1971-1972 Season | Next TC ->>

click for intensity scale information  Lat/long Grid: Show Hide

 Date Labels: Show Hide

Bureau of Meteorology Tropical Cyclone Data

Name: TESSIE
Number: 489 / 197172_10

20 Feb 1972 00:00 UTC to 27 Feb 1972 00:00 UTC

    date/time    lat    long    hPa   cat  kts
1972-02-20 00   11.8   115.1   1004                     
1972-02-20 03   12.1   114.3   1004                     
1972-02-20 06   12.4   113.5   1004                     
1972-02-20 09   12.7   112.7   1002                     
1972-02-20 12   13.0   111.9   1003                     
1972-02-20 15   13.3   111.1   1003                     
1972-02-20 18   13.6   110.4   1002                     
1972-02-20 21   13.8   109.8   1002                     
1972-02-21 00   14.0   109.0   1002                     
1972-02-21 03   14.2   108.4    998                     
1972-02-21 06   14.5   107.9    994    1                
1972-02-21 09   14.7   107.5    990    1                
1972-02-21 12   14.9   107.1    986    1                
1972-02-21 15   15.1   106.7    982    2                
1972-02-21 18   15.3   106.3    978    2                
1972-02-21 21   15.5   105.9    974    2                
1972-02-22 00   15.7   105.6    970    3                
1972-02-22 03   16.0   104.7    968    3                
1972-02-22 06   16.3   103.9    967    3                
1972-02-22 09   16.6   103.0    966    3                
1972-02-22 12   16.9   102.2    965    3                
1972-02-22 15   17.1   101.0    965    3                
1972-02-22 18   17.3    99.8    965    3                
1972-02-22 21   17.5    98.6    965    3                
1972-02-23 00   17.7    97.3    965    3                
1972-02-23 03   17.9    96.3    964    3                
1972-02-23 06   18.1    95.4    963    3                
1972-02-23 09   18.2    94.5    962    3                
1972-02-23 12   18.4    93.6    958    3                
1972-02-23 15   18.6    92.7    956    3                
1972-02-23 18   18.8    91.8    954    4                
1972-02-23 21   19.0    90.9    952    4                
1972-02-24 00   19.2    90.0    950    4                
1972-02-24 03   19.7    89.7    954    4                
1972-02-24 06   20.8    89.5    958    3                
1972-02-24 09   20.7    89.3    962    3                
1972-02-24 12   21.2    89.1    966    3                
1972-02-24 15   21.7    88.9    970    3                
1972-02-24 18   22.2    88.7    974    2                
1972-02-24 21   22.7    88.5    977    2                
1972-02-25 00   23.2    88.3    980    2                
1972-02-25 03   23.6    87.7    982    2                
1972-02-25 06   23.9    87.1    984    2                
1972-02-25 09   24.1    86.5    986    1                
1972-02-25 12   24.2    85.9    988    1                
1972-02-25 15   24.3    85.4    990    1                
1972-02-25 18   24.4    84.9    992    1                
1972-02-25 21   24.5    84.9    994    1                
1972-02-26 00   24.6    84.0    996                     
1972-02-26 03   24.7    83.5    996                     
1972-02-26 06   24.8    83.0    996                     
1972-02-26 09   25.0    82.4    997                     
1972-02-26 12   25.2    81.8    997                     
1972-02-26 15   25.4    81.1    997                     
1972-02-26 18   25.6    80.4    998                     
1972-02-26 21   25.8    79.7    998                     
1972-02-27 00   26.0    79.0    998                     
Winds are 10-min average.

Tropical cyclone tracks developed by Michael Bath using data from the Bureau of Meteorology and Google Maps.


[Australian Severe Weather index] [Copyright Notice] [Email Contacts] [Search This Site] [Privacy Policy]
Document: tropical_cyclone_tessie.htm Updated: 30 May 2013